<?xml version="1.0" encoding="UTF-8" standalone="no" ?>
<gpx xmlns="http://www.topografix.com/GPX/1/1" xmlns:xsi="http://www.w3.org/2001/XMLSchema-instance" xsi:schemaLocation="http://www.topografix.com/GPX/1/1 http://www.topografix.com/GPX/1/1/gpx.xsd" version="1.1" creator="VisuGPX - https://www.visugpx.com">
  <metadata>
    <name>2024-09-23-47-Roquecor-Cardalus</name>
    <desc><![CDATA[Randonnée de 11 km pour 250m de dénivelé positif deux belles côtes, sur ce circuit de beaux chemins vous emmènent vers les lacs près de Cardalus et Espermont avec leurs beaux reflets. De nombreux hameaux à traverser ainsi que la rivière de la petite Séoune]]></desc>
  </metadata>
  <trk>
    <name><![CDATA[roquecor pr4 cardalus-canussel-19774299]]></name>
    <trkseg>
      <trkpt lat="44.32355" lon="0.9451">
        <ele>214</ele>
        <time>2024-08-26T21:45:46Z</time>
      </trkpt>
      <trkpt lat="44.32303" lon="0.94534">
        <ele>213</ele>
        <time>2024-08-26T21:46:59Z</time>
      </trkpt>
      <trkpt lat="44.32303" lon="0.94597">
        <ele>206</ele>
        <time>2024-08-26T21:47:59Z</time>
      </trkpt>
      <trkpt lat="44.32304" lon="0.94603">
        <ele>205</ele>
        <time>2024-08-26T21:48:05Z</time>
      </trkpt>
      <trkpt lat="44.32274" lon="0.94599">
        <ele>207</ele>
        <time>2024-08-26T21:48:45Z</time>
      </trkpt>
      <trkpt lat="44.32266" lon="0.94594">
        <ele>208</ele>
        <time>2024-08-26T21:48:57Z</time>
      </trkpt>
      <trkpt lat="44.32212" lon="0.94627">
        <ele>196</ele>
        <time>2024-08-26T21:50:16Z</time>
      </trkpt>
      <trkpt lat="44.32152" lon="0.94603">
        <ele>194</ele>
        <time>2024-08-26T21:51:39Z</time>
      </trkpt>
      <trkpt lat="44.32092" lon="0.94542">
        <ele>177</ele>
        <time>2024-08-26T21:53:18Z</time>
      </trkpt>
      <trkpt lat="44.32061" lon="0.9461">
        <ele>163</ele>
        <time>2024-08-26T21:54:35Z</time>
      </trkpt>
      <trkpt lat="44.32094" lon="0.94725">
        <ele>151</ele>
        <time>2024-08-26T21:56:33Z</time>
      </trkpt>
      <trkpt lat="44.3209" lon="0.9487">
        <ele>130</ele>
        <time>2024-08-26T21:58:52Z</time>
      </trkpt>
      <trkpt lat="44.32068" lon="0.94998">
        <ele>124</ele>
        <time>2024-08-26T22:00:57Z</time>
      </trkpt>
      <trkpt lat="44.32016" lon="0.95158">
        <ele>124</ele>
        <time>2024-08-26T22:03:45Z</time>
      </trkpt>
      <trkpt lat="44.31888" lon="0.95167">
        <ele>124</ele>
        <time>2024-08-26T22:06:36Z</time>
      </trkpt>
      <trkpt lat="44.3179" lon="0.95073">
        <ele>125</ele>
        <time>2024-08-26T22:09:15Z</time>
      </trkpt>
      <trkpt lat="44.31677" lon="0.94993">
        <ele>124</ele>
        <time>2024-08-26T22:12:04Z</time>
      </trkpt>
      <trkpt lat="44.31584" lon="0.94935">
        <ele>125</ele>
        <time>2024-08-26T22:14:20Z</time>
      </trkpt>
      <trkpt lat="44.31488" lon="0.94832">
        <ele>123</ele>
        <time>2024-08-26T22:17:01Z</time>
      </trkpt>
      <trkpt lat="44.31463" lon="0.94924">
        <ele>134</ele>
        <time>2024-08-26T22:18:35Z</time>
      </trkpt>
      <trkpt lat="44.31361" lon="0.94904">
        <ele>140</ele>
        <time>2024-08-26T22:20:53Z</time>
      </trkpt>
      <trkpt lat="44.31239" lon="0.94849">
        <ele>140</ele>
        <time>2024-08-26T22:23:44Z</time>
      </trkpt>
      <trkpt lat="44.31173" lon="0.94884">
        <ele>137</ele>
        <time>2024-08-26T22:25:18Z</time>
      </trkpt>
      <trkpt lat="44.31126" lon="0.94951">
        <ele>138</ele>
        <time>2024-08-26T22:26:48Z</time>
      </trkpt>
      <trkpt lat="44.31085" lon="0.95049">
        <ele>146</ele>
        <time>2024-08-26T22:28:36Z</time>
      </trkpt>
      <trkpt lat="44.31049" lon="0.95178">
        <ele>151</ele>
        <time>2024-08-26T22:30:48Z</time>
      </trkpt>
      <trkpt lat="44.31154" lon="0.95243">
        <ele>181</ele>
        <time>2024-08-26T22:33:21Z</time>
      </trkpt>
      <trkpt lat="44.31046" lon="0.95711">
        <ele>191</ele>
        <time>2024-08-26T22:41:11Z</time>
      </trkpt>
      <trkpt lat="44.30955" lon="0.95573">
        <ele>158</ele>
        <time>2024-08-26T22:44:10Z</time>
      </trkpt>
      <trkpt lat="44.30734" lon="0.95512">
        <ele>153</ele>
        <time>2024-08-26T22:49:11Z</time>
      </trkpt>
      <trkpt lat="44.30596" lon="0.95524">
        <ele>164</ele>
        <time>2024-08-26T22:52:15Z</time>
      </trkpt>
      <trkpt lat="44.30463" lon="0.95564">
        <ele>185</ele>
        <time>2024-08-26T22:55:17Z</time>
      </trkpt>
      <trkpt lat="44.30353" lon="0.95668">
        <ele>199</ele>
        <time>2024-08-26T22:58:14Z</time>
      </trkpt>
      <trkpt lat="44.30338" lon="0.95662">
        <ele>202</ele>
        <time>2024-08-26T22:58:35Z</time>
      </trkpt>
      <trkpt lat="44.30318" lon="0.9561">
        <ele>207</ele>
        <time>2024-08-26T22:59:31Z</time>
      </trkpt>
      <trkpt lat="44.30253" lon="0.95598">
        <ele>213</ele>
        <time>2024-08-26T23:00:59Z</time>
      </trkpt>
      <trkpt lat="44.29953" lon="0.95627">
        <ele>219</ele>
        <time>2024-08-26T23:07:40Z</time>
      </trkpt>
      <trkpt lat="44.29696" lon="0.95197">
        <ele>232</ele>
        <time>2024-08-26T23:16:35Z</time>
      </trkpt>
      <trkpt lat="44.29738" lon="0.94967">
        <ele>230</ele>
        <time>2024-08-26T23:20:22Z</time>
      </trkpt>
      <trkpt lat="44.29813" lon="0.94984">
        <ele>229</ele>
        <time>2024-08-26T23:22:03Z</time>
      </trkpt>
      <trkpt lat="44.29804" lon="0.9422">
        <ele>219</ele>
        <time>2024-08-26T23:34:13Z</time>
      </trkpt>
      <trkpt lat="44.29789" lon="0.9412">
        <ele>219</ele>
        <time>2024-08-26T23:35:51Z</time>
      </trkpt>
      <trkpt lat="44.29813" lon="0.93481">
        <ele>217</ele>
        <time>2024-08-26T23:46:02Z</time>
      </trkpt>
      <trkpt lat="44.29798" lon="0.93143">
        <ele>221</ele>
        <time>2024-08-26T23:51:25Z</time>
      </trkpt>
      <trkpt lat="44.29792" lon="0.93047">
        <ele>217</ele>
        <time>2024-08-26T23:52:57Z</time>
      </trkpt>
      <trkpt lat="44.2969" lon="0.92943">
        <ele>209</ele>
        <time>2024-08-26T23:55:46Z</time>
      </trkpt>
      <trkpt lat="44.29744" lon="0.92751">
        <ele>186</ele>
        <time>2024-08-26T23:59:03Z</time>
      </trkpt>
      <trkpt lat="44.29732" lon="0.9268">
        <ele>176</ele>
        <time>2024-08-27T00:00:12Z</time>
      </trkpt>
      <trkpt lat="44.30028" lon="0.92771">
        <ele>157</ele>
        <time>2024-08-27T00:06:57Z</time>
      </trkpt>
      <trkpt lat="44.30025" lon="0.92659">
        <ele>143</ele>
        <time>2024-08-27T00:08:44Z</time>
      </trkpt>
      <trkpt lat="44.3007" lon="0.92592">
        <ele>133</ele>
        <time>2024-08-27T00:10:12Z</time>
      </trkpt>
      <trkpt lat="44.30016" lon="0.92525">
        <ele>132</ele>
        <time>2024-08-27T00:11:48Z</time>
      </trkpt>
      <trkpt lat="44.3012" lon="0.92471">
        <ele>122</ele>
        <time>2024-08-27T00:14:16Z</time>
      </trkpt>
      <trkpt lat="44.30231" lon="0.92396">
        <ele>112</ele>
        <time>2024-08-27T00:17:01Z</time>
      </trkpt>
      <trkpt lat="44.30362" lon="0.92713">
        <ele>114</ele>
        <time>2024-08-27T00:22:50Z</time>
      </trkpt>
      <trkpt lat="44.30607" lon="0.92596">
        <ele>112</ele>
        <time>2024-08-27T00:28:36Z</time>
      </trkpt>
      <trkpt lat="44.30655" lon="0.92525">
        <ele>116</ele>
        <time>2024-08-27T00:30:09Z</time>
      </trkpt>
      <trkpt lat="44.307" lon="0.92817">
        <ele>114</ele>
        <time>2024-08-27T00:34:54Z</time>
      </trkpt>
      <trkpt lat="44.30691" lon="0.92847">
        <ele>113</ele>
        <time>2024-08-27T00:35:25Z</time>
      </trkpt>
      <trkpt lat="44.30825" lon="0.93197">
        <ele>117</ele>
        <time>2024-08-27T00:41:44Z</time>
      </trkpt>
      <trkpt lat="44.30963" lon="0.93464">
        <ele>121</ele>
        <time>2024-08-27T00:46:59Z</time>
      </trkpt>
      <trkpt lat="44.31136" lon="0.93569">
        <ele>126</ele>
        <time>2024-08-27T00:51:11Z</time>
      </trkpt>
      <trkpt lat="44.31375" lon="0.93661">
        <ele>153</ele>
        <time>2024-08-27T00:56:41Z</time>
      </trkpt>
      <trkpt lat="44.3159" lon="0.93811">
        <ele>200</ele>
        <time>2024-08-27T01:02:02Z</time>
      </trkpt>
      <trkpt lat="44.31724" lon="0.93974">
        <ele>204</ele>
        <time>2024-08-27T01:05:59Z</time>
      </trkpt>
      <trkpt lat="44.31772" lon="0.93924">
        <ele>212</ele>
        <time>2024-08-27T01:07:19Z</time>
      </trkpt>
      <trkpt lat="44.31844" lon="0.93903">
        <ele>217</ele>
        <time>2024-08-27T01:08:57Z</time>
      </trkpt>
      <trkpt lat="44.31856" lon="0.94086">
        <ele>216</ele>
        <time>2024-08-27T01:11:53Z</time>
      </trkpt>
      <trkpt lat="44.32125" lon="0.94324">
        <ele>210</ele>
        <time>2024-08-27T01:18:58Z</time>
      </trkpt>
      <trkpt lat="44.32198" lon="0.94469">
        <ele>215</ele>
        <time>2024-08-27T01:21:47Z</time>
      </trkpt>
      <trkpt lat="44.32298" lon="0.94367">
        <ele>223</ele>
        <time>2024-08-27T01:24:32Z</time>
      </trkpt>
      <trkpt lat="44.32347" lon="0.94478">
        <ele>216</ele>
        <time>2024-08-27T01:26:37Z</time>
      </trkpt>
      <trkpt lat="44.32364" lon="0.94481">
        <ele>215</ele>
        <time>2024-08-27T01:26:59Z</time>
      </trkpt>
    </trkseg>
  </trk>
</gpx>